sensor_id;sensor_type;location;lat;lon;timestamp;P1;durP1;ratioP1;P2;durP2;ratioP2
3217;SDS011;1621;49.702;8.618;2023-07-29T00:02:01;4.77;;;1.93;;
3217;SDS011;1621;49.702;8.618;2023-07-29T00:04:27;3.23;;;1.70;;
3217;SDS011;1621;49.702;8.618;2023-07-29T00:06:54;3.87;;;1.70;;
3217;SDS011;1621;49.702;8.618;2023-07-29T00:09:20;3.20;;;1.60;;
3217;SDS011;1621;49.702;8.618;2023-07-29T00:11:46;4.00;;;1.90;;
3217;SDS011;1621;49.702;8.618;2023-07-29T00:14:12;3.47;;;1.87;;
3217;SDS011;1621;49.702;8.618;2023-07-29T00:16:39;3.40;;;1.70;;
3217;SDS011;1621;49.702;8.618;2023-07-29T00:19:06;4.30;;;1.70;;
3217;SDS011;1621;49.702;8.618;2023-07-29T00:21:33;3.50;;;1.53;;
3217;SDS011;1621;49.702;8.618;2023-07-29T00:23:59;3.27;;;1.60;;
3217;SDS011;1621;49.702;8.618;2023-07-29T00:26:26;4.90;;;2.07;;
3217;SDS011;1621;49.702;8.618;2023-07-29T00:28:54;4.47;;;2.00;;
3217;SDS011;1621;49.702;8.618;2023-07-29T00:31:20;3.93;;;1.70;;
3217;SDS011;1621;49.702;8.618;2023-07-29T00:33:46;6.13;;;2.00;;
3217;SDS011;1621;49.702;8.618;2023-07-29T00:36:14;3.13;;;1.50;;
3217;SDS011;1621;49.702;8.618;2023-07-29T00:38:40;3.23;;;1.60;;
3217;SDS011;1621;49.702;8.618;2023-07-29T00:41:06;4.23;;;1.60;;
3217;SDS011;1621;49.702;8.618;2023-07-29T00:43:33;4.03;;;1.70;;
3217;SDS011;1621;49.702;8.618;2023-07-29T00:45:59;4.40;;;1.93;;
3217;SDS011;1621;49.702;8.618;2023-07-29T00:48:25;2.80;;;1.40;;
3217;SDS011;1621;49.702;8.618;2023-07-29T00:50:52;6.53;;;1.77;;
3217;SDS011;1621;49.702;8.618;2023-07-29T00:53:20;3.40;;;1.60;;
3217;SDS011;1621;49.702;8.618;2023-07-29T00:55:46;3.10;;;1.50;;
3217;SDS011;1621;49.702;8.618;2023-07-29T00:58:12;3.40;;;1.40;;
3217;SDS011;1621;49.702;8.618;2023-07-29T01:00:38;4.83;;;2.17;;
3217;SDS011;1621;49.702;8.618;2023-07-29T01:03:05;3.40;;;1.70;;
3217;SDS011;1621;49.702;8.618;2023-07-29T01:05:32;3.80;;;1.97;;
3217;SDS011;1621;49.702;8.618;2023-07-29T01:08:03;4.63;;;1.60;;
3217;SDS011;1621;49.702;8.618;2023-07-29T01:10:37;3.60;;;1.63;;
3217;SDS011;1621;49.702;8.618;2023-07-29T01:13:06;4.07;;;1.80;;
3217;SDS011;1621;49.702;8.618;2023-07-29T01:15:36;3.13;;;1.50;;
3217;SDS011;1621;49.702;8.618;2023-07-29T01:18:05;3.40;;;1.97;;
3217;SDS011;1621;49.702;8.618;2023-07-29T01:20:32;3.10;;;1.30;;
3217;SDS011;1621;49.702;8.618;2023-07-29T01:22:59;3.93;;;1.80;;
3217;SDS011;1621;49.702;8.618;2023-07-29T01:25:27;2.90;;;1.60;;
3217;SDS011;1621;49.702;8.618;2023-07-29T01:27:53;3.30;;;1.53;;
3217;SDS011;1621;49.702;8.618;2023-07-29T01:30:20;3.63;;;1.20;;
3217;SDS011;1621;49.702;8.618;2023-07-29T01:32:50;3.37;;;1.77;;
3217;SDS011;1621;49.702;8.618;2023-07-29T01:35:19;9.27;;;1.80;;
3217;SDS011;1621;49.702;8.618;2023-07-29T01:37:47;3.17;;;1.30;;
3217;SDS011;1621;49.702;8.618;2023-07-29T01:40:14;3.50;;;1.13;;
3217;SDS011;1621;49.702;8.618;2023-07-29T01:42:42;4.20;;;1.90;;
3217;SDS011;1621;49.702;8.618;2023-07-29T01:45:10;3.50;;;1.70;;
3217;SDS011;1621;49.702;8.618;2023-07-29T01:47:36;3.93;;;1.77;;
3217;SDS011;1621;49.702;8.618;2023-07-29T01:50:06;2.90;;;1.10;;
3217;SDS011;1621;49.702;8.618;2023-07-29T01:52:32;5.63;;;1.60;;
3217;SDS011;1621;49.702;8.618;2023-07-29T01:54:58;3.30;;;1.47;;
3217;SDS011;1621;49.702;8.618;2023-07-29T01:57:25;3.33;;;1.67;;
3217;SDS011;1621;49.702;8.618;2023-07-29T01:59:52;5.10;;;1.40;;
3217;SDS011;1621;49.702;8.618;2023-07-29T02:02:18;4.27;;;1.40;;
3217;SDS011;1621;49.702;8.618;2023-07-29T02:04:45;3.53;;;1.47;;
3217;SDS011;1621;49.702;8.618;2023-07-29T02:07:16;3.20;;;1.50;;
3217;SDS011;1621;49.702;8.618;2023-07-29T02:09:42;5.93;;;1.57;;
3217;SDS011;1621;49.702;8.618;2023-07-29T02:12:08;3.20;;;1.50;;
3217;SDS011;1621;49.702;8.618;2023-07-29T02:14:35;3.47;;;1.73;;
3217;SDS011;1621;49.702;8.618;2023-07-29T02:17:02;3.40;;;1.30;;
3217;SDS011;1621;49.702;8.618;2023-07-29T02:19:29;3.53;;;1.37;;
3217;SDS011;1621;49.702;8.618;2023-07-29T02:21:55;4.43;;;1.50;;
3217;SDS011;1621;49.702;8.618;2023-07-29T02:24:21;3.03;;;1.53;;
3217;SDS011;1621;49.702;8.618;2023-07-29T02:26:47;4.93;;;1.37;;
3217;SDS011;1621;49.702;8.618;2023-07-29T02:29:14;3.80;;;1.70;;
3217;SDS011;1621;49.702;8.618;2023-07-29T02:31:40;3.63;;;1.50;;
3217;SDS011;1621;49.702;8.618;2023-07-29T02:34:07;3.20;;;1.40;;
3217;SDS011;1621;49.702;8.618;2023-07-29T02:36:34;3.40;;;1.73;;
3217;SDS011;1621;49.702;8.618;2023-07-29T02:39:00;3.30;;;1.60;;
3217;SDS011;1621;49.702;8.618;2023-07-29T02:41:26;3.10;;;1.40;;
3217;SDS011;1621;49.702;8.618;2023-07-29T02:43:52;3.57;;;1.47;;
3217;SDS011;1621;49.702;8.618;2023-07-29T02:46:19;3.63;;;1.50;;
3217;SDS011;1621;49.702;8.618;2023-07-29T02:48:45;10.17;;;1.40;;
3217;SDS011;1621;49.702;8.618;2023-07-29T02:51:12;3.43;;;1.33;;
3217;SDS011;1621;49.702;8.618;2023-07-29T02:53:39;3.20;;;1.43;;
3217;SDS011;1621;49.702;8.618;2023-07-29T02:56:05;3.73;;;1.70;;
3217;SDS011;1621;49.702;8.618;2023-07-29T02:58:34;3.63;;;1.70;;
3217;SDS011;1621;49.702;8.618;2023-07-29T03:01:01;3.90;;;1.50;;
3217;SDS011;1621;49.702;8.618;2023-07-29T03:03:27;3.20;;;1.40;;
3217;SDS011;1621;49.702;8.618;2023-07-29T03:05:56;6.13;;;1.67;;
3217;SDS011;1621;49.702;8.618;2023-07-29T03:08:24;4.80;;;1.90;;
3217;SDS011;1621;49.702;8.618;2023-07-29T03:10:50;3.10;;;1.50;;
3217;SDS011;1621;49.702;8.618;2023-07-29T03:13:17;4.93;;;1.57;;
3217;SDS011;1621;49.702;8.618;2023-07-29T03:15:43;3.40;;;1.60;;
3217;SDS011;1621;49.702;8.618;2023-07-29T03:18:09;3.00;;;1.50;;
3217;SDS011;1621;49.702;8.618;2023-07-29T03:20:35;3.93;;;1.77;;
3217;SDS011;1621;49.702;8.618;2023-07-29T03:23:02;4.10;;;1.43;;
3217;SDS011;1621;49.702;8.618;2023-07-29T03:25:30;3.50;;;1.60;;
3217;SDS011;1621;49.702;8.618;2023-07-29T03:27:56;3.30;;;1.63;;
3217;SDS011;1621;49.702;8.618;2023-07-29T03:30:22;4.63;;;1.70;;
3217;SDS011;1621;49.702;8.618;2023-07-29T03:32:49;4.40;;;1.90;;
3217;SDS011;1621;49.702;8.618;2023-07-29T03:35:15;5.90;;;1.80;;
3217;SDS011;1621;49.702;8.618;2023-07-29T03:37:41;11.60;;;1.93;;
3217;SDS011;1621;49.702;8.618;2023-07-29T03:40:10;3.80;;;1.83;;
3217;SDS011;1621;49.702;8.618;2023-07-29T03:42:37;3.67;;;1.60;;
3217;SDS011;1621;49.702;8.618;2023-07-29T03:45:04;4.70;;;1.60;;
3217;SDS011;1621;49.702;8.618;2023-07-29T03:47:30;5.00;;;2.30;;
3217;SDS011;1621;49.702;8.618;2023-07-29T03:49:56;3.90;;;2.00;;
3217;SDS011;1621;49.702;8.618;2023-07-29T03:52:23;4.40;;;1.77;;
3217;SDS011;1621;49.702;8.618;2023-07-29T03:54:49;4.67;;;1.83;;
3217;SDS011;1621;49.702;8.618;2023-07-29T03:57:15;5.30;;;2.20;;
3217;SDS011;1621;49.702;8.618;2023-07-29T03:59:43;5.30;;;1.90;;
3217;SDS011;1621;49.702;8.618;2023-07-29T04:02:09;6.00;;;2.50;;
3217;SDS011;1621;49.702;8.618;2023-07-29T04:04:36;4.07;;;1.90;;
3217;SDS011;1621;49.702;8.618;2023-07-29T04:07:02;3.80;;;1.93;;
3217;SDS011;1621;49.702;8.618;2023-07-29T04:09:28;4.07;;;2.27;;
3217;SDS011;1621;49.702;8.618;2023-07-29T04:11:54;3.97;;;1.80;;
3217;SDS011;1621;49.702;8.618;2023-07-29T04:14:21;3.50;;;1.70;;
3217;SDS011;1621;49.702;8.618;2023-07-29T04:16:48;3.77;;;1.77;;
3217;SDS011;1621;49.702;8.618;2023-07-29T04:19:15;4.87;;;2.27;;
3217;SDS011;1621;49.702;8.618;2023-07-29T04:21:41;3.97;;;1.80;;
3217;SDS011;1621;49.702;8.618;2023-07-29T04:24:07;6.53;;;2.17;;
3217;SDS011;1621;49.702;8.618;2023-07-29T04:26:34;4.63;;;2.50;;
3217;SDS011;1621;49.702;8.618;2023-07-29T04:29:00;3.53;;;1.67;;
3217;SDS011;1621;49.702;8.618;2023-07-29T04:31:26;4.30;;;2.27;;
3217;SDS011;1621;49.702;8.618;2023-07-29T04:33:54;4.17;;;1.87;;
3217;SDS011;1621;49.702;8.618;2023-07-29T04:36:20;4.23;;;2.10;;
3217;SDS011;1621;49.702;8.618;2023-07-29T04:38:46;5.10;;;1.70;;
3217;SDS011;1621;49.702;8.618;2023-07-29T04:41:13;6.20;;;2.30;;
3217;SDS011;1621;49.702;8.618;2023-07-29T04:43:39;5.27;;;2.20;;
3217;SDS011;1621;49.702;8.618;2023-07-29T04:46:06;4.80;;;2.20;;
3217;SDS011;1621;49.702;8.618;2023-07-29T04:48:32;4.70;;;1.50;;
3217;SDS011;1621;49.702;8.618;2023-07-29T04:51:00;3.77;;;1.93;;
3217;SDS011;1621;49.702;8.618;2023-07-29T04:53:26;5.40;;;1.70;;
3217;SDS011;1621;49.702;8.618;2023-07-29T04:55:53;5.20;;;1.87;;
3217;SDS011;1621;49.702;8.618;2023-07-29T04:58:19;3.17;;;1.67;;
3217;SDS011;1621;49.702;8.618;2023-07-29T05:00:46;4.50;;;2.27;;
3217;SDS011;1621;49.702;8.618;2023-07-29T05:03:12;3.83;;;1.90;;
3217;SDS011;1621;49.702;8.618;2023-07-29T05:05:38;3.57;;;1.50;;
3217;SDS011;1621;49.702;8.618;2023-07-29T05:08:06;3.50;;;2.10;;
3217;SDS011;1621;49.702;8.618;2023-07-29T05:10:32;5.00;;;1.90;;
3217;SDS011;1621;49.702;8.618;2023-07-29T05:12:58;4.30;;;1.97;;
3217;SDS011;1621;49.702;8.618;2023-07-29T05:15:24;3.73;;;1.77;;
3217;SDS011;1621;49.702;8.618;2023-07-29T05:17:51;3.80;;;1.70;;
3217;SDS011;1621;49.702;8.618;2023-07-29T05:20:17;4.20;;;1.93;;
3217;SDS011;1621;49.702;8.618;2023-07-29T05:22:43;4.00;;;1.70;;
3217;SDS011;1621;49.702;8.618;2023-07-29T05:25:11;4.87;;;2.30;;
3217;SDS011;1621;49.702;8.618;2023-07-29T05:27:37;4.30;;;2.00;;
3217;SDS011;1621;49.702;8.618;2023-07-29T05:30:04;4.73;;;2.20;;
3217;SDS011;1621;49.702;8.618;2023-07-29T05:32:31;6.23;;;2.10;;
3217;SDS011;1621;49.702;8.618;2023-07-29T05:34:58;3.87;;;2.27;;
3217;SDS011;1621;49.702;8.618;2023-07-29T05:37:24;3.77;;;2.03;;
3217;SDS011;1621;49.702;8.618;2023-07-29T05:39:51;4.17;;;1.97;;
3217;SDS011;1621;49.702;8.618;2023-07-29T05:42:18;4.13;;;1.90;;
3217;SDS011;1621;49.702;8.618;2023-07-29T05:44:45;5.50;;;2.00;;
3217;SDS011;1621;49.702;8.618;2023-07-29T05:47:11;4.10;;;2.17;;
3217;SDS011;1621;49.702;8.618;2023-07-29T05:49:37;3.80;;;2.20;;
3217;SDS011;1621;49.702;8.618;2023-07-29T05:52:04;4.10;;;2.10;;
3217;SDS011;1621;49.702;8.618;2023-07-29T05:54:30;5.20;;;2.13;;
3217;SDS011;1621;49.702;8.618;2023-07-29T05:56:56;4.17;;;2.30;;
3217;SDS011;1621;49.702;8.618;2023-07-29T05:59:24;4.47;;;2.10;;
3217;SDS011;1621;49.702;8.618;2023-07-29T06:01:50;4.50;;;1.90;;
3217;SDS011;1621;49.702;8.618;2023-07-29T06:04:15;5.50;;;2.10;;
3217;SDS011;1621;49.702;8.618;2023-07-29T06:06:42;6.40;;;1.83;;
3217;SDS011;1621;49.702;8.618;2023-07-29T06:09:08;4.17;;;2.37;;
3217;SDS011;1621;49.702;8.618;2023-07-29T06:11:34;5.17;;;2.60;;
3217;SDS011;1621;49.702;8.618;2023-07-29T06:14:00;3.50;;;2.10;;
3217;SDS011;1621;49.702;8.618;2023-07-29T06:16:28;5.73;;;2.30;;
3217;SDS011;1621;49.702;8.618;2023-07-29T06:18:54;5.10;;;2.20;;
3217;SDS011;1621;49.702;8.618;2023-07-29T06:21:20;3.50;;;2.20;;
3217;SDS011;1621;49.702;8.618;2023-07-29T06:23:47;4.00;;;2.00;;
3217;SDS011;1621;49.702;8.618;2023-07-29T06:26:13;4.40;;;1.70;;
3217;SDS011;1621;49.702;8.618;2023-07-29T06:28:39;4.40;;;2.30;;
3217;SDS011;1621;49.702;8.618;2023-07-29T06:31:06;6.70;;;2.20;;
3217;SDS011;1621;49.702;8.618;2023-07-29T06:33:33;5.33;;;1.83;;
3217;SDS011;1621;49.702;8.618;2023-07-29T06:35:59;3.73;;;1.70;;
3217;SDS011;1621;49.702;8.618;2023-07-29T06:38:26;3.10;;;1.60;;
3217;SDS011;1621;49.702;8.618;2023-07-29T06:40:52;4.97;;;1.73;;
3217;SDS011;1621;49.702;8.618;2023-07-29T06:43:18;3.67;;;1.70;;
3217;SDS011;1621;49.702;8.618;2023-07-29T06:45:45;3.47;;;1.93;;
3217;SDS011;1621;49.702;8.618;2023-07-29T06:48:11;3.80;;;1.80;;
3217;SDS011;1621;49.702;8.618;2023-07-29T06:50:38;3.60;;;1.70;;
3217;SDS011;1621;49.702;8.618;2023-07-29T06:53:05;4.27;;;1.60;;
3217;SDS011;1621;49.702;8.618;2023-07-29T06:55:31;6.13;;;2.00;;
3217;SDS011;1621;49.702;8.618;2023-07-29T06:57:57;12.80;;;3.07;;
3217;SDS011;1621;49.702;8.618;2023-07-29T07:00:24;8.30;;;2.83;;
3217;SDS011;1621;49.702;8.618;2023-07-29T07:02:50;8.00;;;2.50;;
3217;SDS011;1621;49.702;8.618;2023-07-29T07:05:16;7.30;;;3.07;;
3217;SDS011;1621;49.702;8.618;2023-07-29T07:07:44;24.43;;;3.40;;
3217;SDS011;1621;49.702;8.618;2023-07-29T07:10:10;9.23;;;2.93;;
3217;SDS011;1621;49.702;8.618;2023-07-29T07:12:36;8.13;;;3.30;;
3217;SDS011;1621;49.702;8.618;2023-07-29T07:15:03;12.20;;;2.80;;
3217;SDS011;1621;49.702;8.618;2023-07-29T07:17:29;9.20;;;2.20;;
3217;SDS011;1621;49.702;8.618;2023-07-29T07:19:55;6.17;;;1.50;;
3217;SDS011;1621;49.702;8.618;2023-07-29T07:22:21;3.80;;;1.60;;
3217;SDS011;1621;49.702;8.618;2023-07-29T07:24:50;6.50;;;1.63;;
3217;SDS011;1621;49.702;8.618;2023-07-29T07:27:16;4.43;;;1.70;;
3217;SDS011;1621;49.702;8.618;2023-07-29T07:29:42;5.13;;;2.10;;
3217;SDS011;1621;49.702;8.618;2023-07-29T07:32:09;7.27;;;5.13;;
3217;SDS011;1621;49.702;8.618;2023-07-29T07:34:35;5.50;;;3.90;;
3217;SDS011;1621;49.702;8.618;2023-07-29T07:37:01;6.30;;;3.47;;
3217;SDS011;1621;49.702;8.618;2023-07-29T07:39:28;9.33;;;3.10;;
3217;SDS011;1621;49.702;8.618;2023-07-29T07:41:56;4.13;;;2.47;;
3217;SDS011;1621;49.702;8.618;2023-07-29T07:44:22;4.23;;;2.63;;
3217;SDS011;1621;49.702;8.618;2023-07-29T07:46:51;4.80;;;2.27;;
3217;SDS011;1621;49.702;8.618;2023-07-29T07:49:18;5.10;;;1.87;;
3217;SDS011;1621;49.702;8.618;2023-07-29T07:51:44;3.50;;;1.70;;
3217;SDS011;1621;49.702;8.618;2023-07-29T07:54:11;4.47;;;1.83;;
3217;SDS011;1621;49.702;8.618;2023-07-29T07:56:37;5.10;;;1.90;;
3217;SDS011;1621;49.702;8.618;2023-07-29T07:59:05;3.50;;;1.67;;
3217;SDS011;1621;49.702;8.618;2023-07-29T08:01:34;3.87;;;1.70;;
3217;SDS011;1621;49.702;8.618;2023-07-29T08:04:00;5.50;;;2.13;;
3217;SDS011;1621;49.702;8.618;2023-07-29T08:06:26;7.50;;;2.20;;
3217;SDS011;1621;49.702;8.618;2023-07-29T08:08:52;3.37;;;1.90;;
3217;SDS011;1621;49.702;8.618;2023-07-29T08:11:19;5.20;;;3.17;;
3217;SDS011;1621;49.702;8.618;2023-07-29T08:13:45;5.47;;;3.13;;
3217;SDS011;1621;49.702;8.618;2023-07-29T08:16:13;5.70;;;3.70;;
3217;SDS011;1621;49.702;8.618;2023-07-29T08:18:40;6.53;;;3.40;;
3217;SDS011;1621;49.702;8.618;2023-07-29T08:21:06;5.97;;;3.60;;
3217;SDS011;1621;49.702;8.618;2023-07-29T08:23:33;5.03;;;3.80;;
3217;SDS011;1621;49.702;8.618;2023-07-29T08:26:00;7.43;;;3.20;;
3217;SDS011;1621;49.702;8.618;2023-07-29T08:28:27;4.87;;;2.77;;
3217;SDS011;1621;49.702;8.618;2023-07-29T08:30:53;9.23;;;2.90;;
3217;SDS011;1621;49.702;8.618;2023-07-29T08:33:20;4.60;;;3.17;;
3217;SDS011;1621;49.702;8.618;2023-07-29T08:35:47;6.63;;;2.50;;
3217;SDS011;1621;49.702;8.618;2023-07-29T08:38:13;16.17;;;2.97;;
3217;SDS011;1621;49.702;8.618;2023-07-29T08:40:41;3.47;;;1.93;;
3217;SDS011;1621;49.702;8.618;2023-07-29T08:43:08;4.23;;;2.10;;
3217;SDS011;1621;49.702;8.618;2023-07-29T08:45:35;4.50;;;2.10;;
3217;SDS011;1621;49.702;8.618;2023-07-29T08:48:02;3.60;;;2.00;;
3217;SDS011;1621;49.702;8.618;2023-07-29T08:50:30;3.90;;;1.77;;
3217;SDS011;1621;49.702;8.618;2023-07-29T08:52:58;2.90;;;1.33;;
3217;SDS011;1621;49.702;8.618;2023-07-29T08:55:25;4.37;;;2.10;;
3217;SDS011;1621;49.702;8.618;2023-07-29T08:57:51;3.90;;;1.80;;
3217;SDS011;1621;49.702;8.618;2023-07-29T09:00:18;4.60;;;2.07;;
3217;SDS011;1621;49.702;8.618;2023-07-29T09:02:45;4.90;;;1.70;;
3217;SDS011;1621;49.702;8.618;2023-07-29T09:05:11;7.53;;;2.00;;
3217;SDS011;1621;49.702;8.618;2023-07-29T09:07:39;3.30;;;1.30;;
3217;SDS011;1621;49.702;8.618;2023-07-29T09:10:08;2.77;;;1.17;;
3217;SDS011;1621;49.702;8.618;2023-07-29T09:12:34;4.27;;;1.80;;
3217;SDS011;1621;49.702;8.618;2023-07-29T09:15:01;3.13;;;1.10;;
3217;SDS011;1621;49.702;8.618;2023-07-29T09:17:27;4.23;;;1.50;;
3217;SDS011;1621;49.702;8.618;2023-07-29T09:19:56;3.30;;;1.60;;
3217;SDS011;1621;49.702;8.618;2023-07-29T09:22:23;3.60;;;1.40;;
3217;SDS011;1621;49.702;8.618;2023-07-29T09:24:51;3.63;;;1.30;;
3217;SDS011;1621;49.702;8.618;2023-07-29T09:27:24;3.53;;;1.30;;
3217;SDS011;1621;49.702;8.618;2023-07-29T09:29:51;3.17;;;1.40;;
3217;SDS011;1621;49.702;8.618;2023-07-29T09:32:18;3.03;;;1.40;;
3217;SDS011;1621;49.702;8.618;2023-07-29T09:34:45;3.30;;;1.40;;
3217;SDS011;1621;49.702;8.618;2023-07-29T09:37:15;3.20;;;1.40;;
3217;SDS011;1621;49.702;8.618;2023-07-29T09:39:42;3.83;;;1.57;;
3217;SDS011;1621;49.702;8.618;2023-07-29T09:42:12;3.93;;;1.50;;
3217;SDS011;1621;49.702;8.618;2023-07-29T09:44:41;3.33;;;1.43;;
3217;SDS011;1621;49.702;8.618;2023-07-29T09:47:08;3.57;;;1.50;;
3217;SDS011;1621;49.702;8.618;2023-07-29T09:49:34;3.63;;;1.67;;
3217;SDS011;1621;49.702;8.618;2023-07-29T09:52:01;3.77;;;1.70;;
3217;SDS011;1621;49.702;8.618;2023-07-29T09:54:29;4.50;;;1.67;;
3217;SDS011;1621;49.702;8.618;2023-07-29T09:56:55;3.30;;;1.50;;
3217;SDS011;1621;49.702;8.618;2023-07-29T09:59:24;4.17;;;1.73;;
3217;SDS011;1621;49.702;8.618;2023-07-29T10:01:50;4.30;;;1.40;;
3217;SDS011;1621;49.702;8.618;2023-07-29T10:04:16;4.83;;;2.30;;
3217;SDS011;1621;49.702;8.618;2023-07-29T10:06:43;4.17;;;1.77;;
3217;SDS011;1621;49.702;8.618;2023-07-29T10:11:36;4.77;;;1.70;;
3217;SDS011;1621;49.702;8.618;2023-07-29T10:14:03;4.23;;;1.90;;
3217;SDS011;1621;49.702;8.618;2023-07-29T10:16:31;5.00;;;2.03;;
3217;SDS011;1621;49.702;8.618;2023-07-29T10:18:57;4.87;;;2.80;;
3217;SDS011;1621;49.702;8.618;2023-07-29T10:21:24;5.80;;;2.60;;
3217;SDS011;1621;49.702;8.618;2023-07-29T10:23:50;7.07;;;2.00;;
3217;SDS011;1621;49.702;8.618;2023-07-29T10:26:19;4.50;;;2.67;;
3217;SDS011;1621;49.702;8.618;2023-07-29T10:28:46;3.50;;;2.10;;
3217;SDS011;1621;49.702;8.618;2023-07-29T10:31:13;4.20;;;2.30;;
3217;SDS011;1621;49.702;8.618;2023-07-29T10:33:42;4.50;;;2.57;;
3217;SDS011;1621;49.702;8.618;2023-07-29T10:36:09;4.80;;;2.90;;
3217;SDS011;1621;49.702;8.618;2023-07-29T10:38:35;4.20;;;1.80;;
3217;SDS011;1621;49.702;8.618;2023-07-29T10:41:01;5.50;;;2.40;;
3217;SDS011;1621;49.702;8.618;2023-07-29T10:43:32;3.90;;;2.40;;
3217;SDS011;1621;49.702;8.618;2023-07-29T10:46:14;3.87;;;2.20;;
3217;SDS011;1621;49.702;8.618;2023-07-29T10:48:42;4.10;;;2.30;;
3217;SDS011;1621;49.702;8.618;2023-07-29T10:51:21;3.80;;;2.20;;
3217;SDS011;1621;49.702;8.618;2023-07-29T10:53:48;4.47;;;2.43;;
3217;SDS011;1621;49.702;8.618;2023-07-29T10:56:20;5.60;;;1.93;;
3217;SDS011;1621;49.702;8.618;2023-07-29T10:58:50;3.97;;;2.20;;
3217;SDS011;1621;49.702;8.618;2023-07-29T11:01:21;3.53;;;2.00;;
3217;SDS011;1621;49.702;8.618;2023-07-29T11:04:01;3.23;;;1.80;;
3217;SDS011;1621;49.702;8.618;2023-07-29T11:09:39;3.60;;;2.10;;
3217;SDS011;1621;49.702;8.618;2023-07-29T11:12:05;4.50;;;2.17;;
3217;SDS011;1621;49.702;8.618;2023-07-29T11:14:32;5.03;;;2.50;;
3217;SDS011;1621;49.702;8.618;2023-07-29T11:16:58;3.40;;;1.73;;
3217;SDS011;1621;49.702;8.618;2023-07-29T11:19:26;4.03;;;2.00;;
3217;SDS011;1621;49.702;8.618;2023-07-29T11:21:52;3.53;;;2.00;;
3217;SDS011;1621;49.702;8.618;2023-07-29T11:24:19;3.43;;;1.93;;
3217;SDS011;1621;49.702;8.618;2023-07-29T11:26:46;3.37;;;1.90;;
3217;SDS011;1621;49.702;8.618;2023-07-29T11:29:12;3.40;;;1.70;;
3217;SDS011;1621;49.702;8.618;2023-07-29T11:31:39;5.63;;;2.10;;
3217;SDS011;1621;49.702;8.618;2023-07-29T11:34:06;4.33;;;1.73;;
3217;SDS011;1621;49.702;8.618;2023-07-29T11:36:34;3.60;;;1.97;;
3217;SDS011;1621;49.702;8.618;2023-07-29T11:39:08;5.20;;;2.10;;
3217;SDS011;1621;49.702;8.618;2023-07-29T11:41:34;3.60;;;1.80;;
3217;SDS011;1621;49.702;8.618;2023-07-29T11:44:01;3.60;;;1.60;;
3217;SDS011;1621;49.702;8.618;2023-07-29T11:46:27;5.93;;;2.40;;
3217;SDS011;1621;49.702;8.618;2023-07-29T11:48:53;3.30;;;1.80;;
3217;SDS011;1621;49.702;8.618;2023-07-29T11:51:20;4.03;;;1.90;;
3217;SDS011;1621;49.702;8.618;2023-07-29T11:53:48;4.90;;;1.73;;
3217;SDS011;1621;49.702;8.618;2023-07-29T11:56:15;3.57;;;1.87;;
3217;SDS011;1621;49.702;8.618;2023-07-29T11:58:42;5.30;;;2.10;;
3217;SDS011;1621;49.702;8.618;2023-07-29T12:01:09;3.60;;;1.77;;
3217;SDS011;1621;49.702;8.618;2023-07-29T12:03:36;4.77;;;1.87;;
3217;SDS011;1621;49.702;8.618;2023-07-29T12:06:02;5.33;;;2.13;;
3217;SDS011;1621;49.702;8.618;2023-07-29T12:08:28;4.80;;;1.50;;
3217;SDS011;1621;49.702;8.618;2023-07-29T12:10:56;3.30;;;1.80;;
3217;SDS011;1621;49.702;8.618;2023-07-29T12:13:23;3.20;;;1.60;;
3217;SDS011;1621;49.702;8.618;2023-07-29T12:15:49;5.07;;;1.90;;
3217;SDS011;1621;49.702;8.618;2023-07-29T12:18:16;3.37;;;1.60;;
3217;SDS011;1621;49.702;8.618;2023-07-29T12:20:42;5.23;;;2.00;;
3217;SDS011;1621;49.702;8.618;2023-07-29T12:23:09;3.87;;;1.87;;
3217;SDS011;1621;49.702;8.618;2023-07-29T12:25:35;4.57;;;1.67;;
3217;SDS011;1621;49.702;8.618;2023-07-29T12:28:03;3.63;;;1.60;;
3217;SDS011;1621;49.702;8.618;2023-07-29T12:30:29;3.10;;;1.70;;
3217;SDS011;1621;49.702;8.618;2023-07-29T12:32:56;3.53;;;2.07;;
3217;SDS011;1621;49.702;8.618;2023-07-29T12:35:22;3.00;;;1.53;;
3217;SDS011;1621;49.702;8.618;2023-07-29T12:37:57;6.30;;;1.57;;
3217;SDS011;1621;49.702;8.618;2023-07-29T12:40:24;3.63;;;1.80;;
3217;SDS011;1621;49.702;8.618;2023-07-29T12:42:51;4.60;;;2.40;;
3217;SDS011;1621;49.702;8.618;2023-07-29T12:45:19;3.30;;;1.50;;
3217;SDS011;1621;49.702;8.618;2023-07-29T12:47:47;4.07;;;1.80;;
3217;SDS011;1621;49.702;8.618;2023-07-29T12:50:14;3.27;;;1.57;;
3217;SDS011;1621;49.702;8.618;2023-07-29T12:52:40;3.17;;;1.57;;
3217;SDS011;1621;49.702;8.618;2023-07-29T12:55:06;3.17;;;1.40;;
3217;SDS011;1621;49.702;8.618;2023-07-29T12:57:38;3.10;;;1.60;;
3217;SDS011;1621;49.702;8.618;2023-07-29T13:00:04;6.47;;;1.63;;
3217;SDS011;1621;49.702;8.618;2023-07-29T13:02:32;3.03;;;1.93;;
3217;SDS011;1621;49.702;8.618;2023-07-29T13:04:59;3.70;;;1.60;;
3217;SDS011;1621;49.702;8.618;2023-07-29T13:07:25;3.00;;;1.60;;
3217;SDS011;1621;49.702;8.618;2023-07-29T13:09:51;2.57;;;1.37;;
3217;SDS011;1621;49.702;8.618;2023-07-29T13:12:17;4.17;;;1.40;;
3217;SDS011;1621;49.702;8.618;2023-07-29T13:14:44;2.77;;;1.40;;
3217;SDS011;1621;49.702;8.618;2023-07-29T13:17:10;2.80;;;1.50;;
3217;SDS011;1621;49.702;8.618;2023-07-29T13:19:37;3.97;;;1.60;;
3217;SDS011;1621;49.702;8.618;2023-07-29T13:22:04;3.77;;;1.83;;
3217;SDS011;1621;49.702;8.618;2023-07-29T13:24:30;5.60;;;2.10;;
3217;SDS011;1621;49.702;8.618;2023-07-29T13:26:57;3.37;;;1.60;;
3217;SDS011;1621;49.702;8.618;2023-07-29T13:29:23;2.90;;;1.50;;
3217;SDS011;1621;49.702;8.618;2023-07-29T13:31:50;4.07;;;1.60;;
3217;SDS011;1621;49.702;8.618;2023-07-29T13:34:16;3.33;;;1.53;;
3217;SDS011;1621;49.702;8.618;2023-07-29T13:36:44;2.97;;;1.63;;
3217;SDS011;1621;49.702;8.618;2023-07-29T13:39:10;3.00;;;1.60;;
3217;SDS011;1621;49.702;8.618;2023-07-29T13:41:36;2.50;;;1.30;;
3217;SDS011;1621;49.702;8.618;2023-07-29T13:44:03;4.13;;;1.80;;
3217;SDS011;1621;49.702;8.618;2023-07-29T13:46:29;2.50;;;1.40;;
3217;SDS011;1621;49.702;8.618;2023-07-29T13:48:55;3.40;;;1.97;;
3217;SDS011;1621;49.702;8.618;2023-07-29T13:51:22;5.00;;;1.57;;
3217;SDS011;1621;49.702;8.618;2023-07-29T13:53:50;3.37;;;1.70;;
3217;SDS011;1621;49.702;8.618;2023-07-29T13:56:16;2.63;;;1.40;;
3217;SDS011;1621;49.702;8.618;2023-07-29T13:58:42;2.50;;;1.20;;
3217;SDS011;1621;49.702;8.618;2023-07-29T14:01:09;2.93;;;1.53;;
3217;SDS011;1621;49.702;8.618;2023-07-29T14:03:35;3.00;;;1.43;;
3217;SDS011;1621;49.702;8.618;2023-07-29T14:06:01;2.87;;;1.60;;
3217;SDS011;1621;49.702;8.618;2023-07-29T14:08:27;3.60;;;1.50;;
3217;SDS011;1621;49.702;8.618;2023-07-29T14:10:55;3.10;;;1.50;;
3217;SDS011;1621;49.702;8.618;2023-07-29T14:13:21;5.20;;;1.40;;
3217;SDS011;1621;49.702;8.618;2023-07-29T14:15:48;2.87;;;1.37;;
3217;SDS011;1621;49.702;8.618;2023-07-29T14:18:14;2.30;;;1.20;;
3217;SDS011;1621;49.702;8.618;2023-07-29T14:20:40;2.50;;;1.37;;
3217;SDS011;1621;49.702;8.618;2023-07-29T14:23:06;4.27;;;1.50;;
3217;SDS011;1621;49.702;8.618;2023-07-29T14:25:33;2.77;;;1.60;;
3217;SDS011;1621;49.702;8.618;2023-07-29T14:28:00;2.70;;;1.40;;
3217;SDS011;1621;49.702;8.618;2023-07-29T14:30:27;3.10;;;1.70;;
3217;SDS011;1621;49.702;8.618;2023-07-29T14:32:53;2.80;;;1.53;;
3217;SDS011;1621;49.702;8.618;2023-07-29T14:35:20;3.20;;;1.60;;
3217;SDS011;1621;49.702;8.618;2023-07-29T14:37:46;2.57;;;1.47;;
3217;SDS011;1621;49.702;8.618;2023-07-29T14:40:12;2.77;;;1.70;;
3217;SDS011;1621;49.702;8.618;2023-07-29T14:42:38;3.10;;;1.80;;
3217;SDS011;1621;49.702;8.618;2023-07-29T14:45:06;3.07;;;1.57;;
3217;SDS011;1621;49.702;8.618;2023-07-29T14:47:33;4.00;;;1.80;;
3217;SDS011;1621;49.702;8.618;2023-07-29T14:49:59;3.00;;;1.60;;
3217;SDS011;1621;49.702;8.618;2023-07-29T14:52:26;2.90;;;1.60;;
3217;SDS011;1621;49.702;8.618;2023-07-29T14:54:52;2.97;;;1.67;;
3217;SDS011;1621;49.702;8.618;2023-07-29T14:57:18;3.43;;;1.87;;
3217;SDS011;1621;49.702;8.618;2023-07-29T14:59:44;3.30;;;1.80;;
3217;SDS011;1621;49.702;8.618;2023-07-29T15:02:12;3.77;;;1.80;;
3217;SDS011;1621;49.702;8.618;2023-07-29T15:04:38;3.00;;;1.77;;
3217;SDS011;1621;49.702;8.618;2023-07-29T15:07:05;2.97;;;1.40;;
3217;SDS011;1621;49.702;8.618;2023-07-29T15:09:31;4.40;;;1.47;;
3217;SDS011;1621;49.702;8.618;2023-07-29T15:11:57;5.50;;;2.00;;
3217;SDS011;1621;49.702;8.618;2023-07-29T15:14:24;2.83;;;1.57;;
3217;SDS011;1621;49.702;8.618;2023-07-29T15:16:50;2.80;;;1.53;;
3217;SDS011;1621;49.702;8.618;2023-07-29T15:19:18;7.17;;;1.63;;